Time;durP1;ratioP1;P1;durP2;ratioP2;P2;SDS_P1;SDS_P2;PMS_P1;PMS_P2;Temp;Humidity;BMP_temperature;BMP_pressure;BME280_temperature;BME280_humidity;BME280_pressure;Samples;Min_cycle;Max_cycle;Signal;HPM_P1;HPM_P2
2022/08/18 00:01:24;;;;;;;;;31.00;29.00;;;;;21.26;75.56;100389.16;5076410;27;45639;-72
2022/08/18 00:03:50;;;;;;;;;27.50;27.50;;;;;21.22;75.34;100385.06;5076477;27;45509;-70
2022/08/18 00:06:16;;;;;;;;;25.00;24.75;;;;;21.20;75.54;100389.66;5076035;27;46378;-71
2022/08/18 00:08:41;;;;;;;;;28.75;28.50;;;;;21.16;75.84;100383.75;5076023;27;45368;-71
2022/08/18 00:11:07;;;;;;;;;27.25;27.25;;;;;21.13;75.95;100390.22;5074812;28;45347;-72
2022/08/18 00:13:33;;;;;;;;;28.50;28.50;;;;;21.13;76.01;100389.38;5076084;27;45586;-71
2022/08/18 00:15:58;;;;;;;;;25.50;25.50;;;;;21.12;75.96;100393.03;5075789;28;46333;-72
2022/08/18 00:18:24;;;;;;;;;24.50;24.50;;;;;21.10;76.19;100389.66;5075623;27;45371;-70
2022/08/18 00:20:49;;;;;;;;;29.50;27.75;;;;;21.05;76.05;100378.50;5076407;27;45312;-71
2022/08/18 00:23:15;;;;;;;;;29.50;29.00;;;;;21.05;75.99;100383.88;5076232;27;45493;-71
2022/08/18 00:25:40;;;;;;;;;26.00;26.00;;;;;21.03;76.54;100381.31;5075819;27;46293;-71
2022/08/18 00:28:06;;;;;;;;;23.25;23.25;;;;;21.00;76.54;100384.25;5076234;27;45400;-71
2022/08/18 00:30:32;;;;;;;;;25.50;25.25;;;;;20.94;76.74;100379.44;5075904;27;45683;-70
2022/08/18 00:32:59;;;;;;;;;20.00;20.00;;;;;20.94;76.75;100388.34;5076275;27;45332;-72
2022/08/18 00:35:28;;;;;;;;;24.75;24.75;;;;;20.93;76.66;100386.63;5075789;27;46075;-71
2022/08/18 00:37:56;;;;;;;;;21.75;21.75;;;;;20.92;76.88;100392.09;5075357;27;45364;-71
2022/08/18 00:40:27;;;;;;;;;22.25;22.25;;;;;20.92;76.88;100386.75;5075714;28;45401;-71
2022/08/18 00:42:55;;;;;;;;;24.50;24.50;;;;;20.89;77.12;100377.19;5075922;27;45223;-70
2022/08/18 00:45:26;;;;;;;;;22.00;21.50;;;;;20.83;77.08;100365.19;5075801;27;45754;-71
2022/08/18 00:47:52;;;;;;;;;24.00;23.00;;;;;20.89;76.99;100387.03;5075696;28;45244;-71
2022/08/18 00:50:24;;;;;;;;;25.25;23.50;;;;;20.85;77.11;100389.97;5075500;27;45412;-71
2022/08/18 00:52:58;;;;;;;;;23.75;23.75;;;;;20.84;77.30;100382.94;5075846;27;45304;-70
2022/08/18 00:55:24;;;;;;;;;17.75;17.75;;;;;20.80;77.24;100392.19;5075197;27;45332;-71
2022/08/18 00:57:53;;;;;;;;;24.25;24.25;;;;;20.81;78.08;100391.22;5075267;27;45234;-72
2022/08/18 01:00:20;;;;;;;;;23.75;23.75;;;;;20.80;77.32;100391.38;5075210;27;45415;-73
2022/08/18 01:02:51;;;;;;;;;25.25;25.25;;;;;20.79;77.52;100398.53;5075466;27;45406;-71
2022/08/18 01:05:26;;;;;;;;;23.25;23.25;;;;;20.78;77.66;100398.63;5074989;27;46375;-71
2022/08/18 01:07:52;;;;;;;;;23.00;23.00;;;;;20.78;77.40;100395.97;5075187;27;45261;-72
2022/08/18 01:10:21;;;;;;;;;23.75;23.75;;;;;20.78;77.67;100394.16;5075030;27;45331;-72
2022/08/18 01:12:51;;;;;;;;;23.25;23.25;;;;;20.76;77.64;100393.41;5075276;27;45406;-71
2022/08/18 01:15:18;;;;;;;;;24.75;24.75;;;;;20.76;77.86;100408.63;5074617;27;46586;-71
2022/08/18 01:23:46;;;;;;;;;23.75;23.25;;;;;20.72;77.74;100392.84;5064244;27;45430;-72
2022/08/18 01:26:15;;;;;;;;;31.25;30.25;;;;;20.70;78.18;100393.94;5074997;27;46750;-72
2022/08/18 01:28:44;;;;;;;;;24.75;24.75;;;;;20.69;78.00;100400.25;5074759;27;45300;-72
2022/08/18 01:31:12;;;;;;;;;27.50;26.50;;;;;20.68;78.10;100382.53;5075179;27;45352;-71
2022/08/18 01:33:41;;;;;;;;;26.00;25.50;;;;;20.67;77.99;100383.50;5074967;27;45389;-71
2022/08/18 01:36:15;;;;;;;;;22.75;22.75;;;;;20.66;77.86;100384.50;5074670;27;45496;-72
2022/08/18 01:38:41;;;;;;;;;23.00;23.00;;;;;20.64;77.57;100399.81;5075086;27;45348;-72
2022/08/18 01:41:07;;;;;;;;;24.50;24.50;;;;;20.63;78.06;100401.63;5075068;27;45476;-72
2022/08/18 01:43:34;;;;;;;;;25.25;25.25;;;;;20.60;78.28;100393.03;5076165;27;45598;-71
2022/08/18 01:46:02;;;;;;;;;20.50;20.50;;;;;20.63;78.21;100398.13;5075723;27;45372;-72
2022/08/18 01:48:33;;;;;;;;;24.25;24.25;;;;;20.63;78.21;100404.28;5074627;27;45484;-72
2022/08/18 01:51:07;;;;;;;;;25.00;25.00;;;;;20.62;78.56;100397.25;5073598;28;45376;-71
2022/08/18 01:53:33;;;;;;;;;23.75;23.00;;;;;20.61;78.31;100400.06;5074643;27;45280;-71
2022/08/18 01:55:59;;;;;;;;;26.00;26.00;;;;;20.63;78.62;100395.44;5074185;27;45359;-72
2022/08/18 01:58:27;;;;;;;;;24.00;23.75;;;;;20.59;78.77;100392.19;5074122;27;45936;-72
2022/08/18 02:00:57;;;;;;;;;22.75;22.75;;;;;20.62;78.47;100402.59;5074827;27;45411;-73
2022/08/18 02:03:28;;;;;;;;;25.25;25.25;;;;;20.60;78.47;100398.38;5074676;27;45564;-71
2022/08/18 02:05:59;;;;;;;;;24.25;24.25;;;;;20.59;78.10;100413.56;5073018;28;46410;-71
2022/08/18 02:08:25;;;;;;;;;26.25;25.00;;;;;20.58;78.48;100401.16;5074018;27;45344;-71
2022/08/18 02:10:50;;;;;;;;;17.75;17.75;;;;;20.59;78.61;100400.19;5074127;27;45349;-71
2022/08/18 02:13:17;;;;;;;;;20.00;20.00;;;;;20.55;78.31;100394.28;5074486;28;45628;-72
2022/08/18 02:15:42;;;;;;;;;20.75;20.75;;;;;20.49;78.63;100386.78;5074234;27;45436;-70
2022/08/18 02:18:16;;;;;;;;;19.00;19.00;;;;;20.55;78.18;100401.44;5074015;27;45415;-71
2022/08/18 02:20:43;;;;;;;;;20.50;20.50;;;;;20.58;78.19;100406.50;5074476;27;45441;-71
2022/08/18 02:23:10;;;;;;;;;21.25;21.25;;;;;20.54;78.00;100413.97;5074189;27;45579;-72
2022/08/18 02:25:36;;;;;;;;;17.25;16.25;;;;;20.51;77.97;100427.59;5073780;28;46233;-71
2022/08/18 02:28:02;;;;;;;;;16.25;16.25;;;;;20.45;77.08;100430.78;5073963;27;45388;-71
2022/08/18 02:30:27;;;;;;;;;17.25;17.00;;;;;20.31;76.23;100425.75;5073778;28;45240;-71
2022/08/18 02:32:52;;;;;;;;;17.50;17.50;;;;;20.19;76.27;100431.16;5074135;27;45219;-71
2022/08/18 02:35:18;;;;;;;;;17.25;17.25;;;;;20.02;76.60;100421.00;5073990;27;46223;-71
2022/08/18 02:37:46;;;;;;;;;19.75;19.75;;;;;19.89;76.83;100418.47;5074264;27;45371;-72
2022/08/18 02:40:13;;;;;;;;;20.75;20.75;;;;;19.81;77.46;100425.31;5074160;27;45533;-72
2022/08/18 02:42:38;;;;;;;;;19.00;19.00;;;;;19.78;77.88;100419.34;5074020;27;45218;-72
2022/08/18 02:45:05;;;;;;;;;19.00;19.00;;;;;19.72;78.31;100415.38;5073578;27;46839;-70
2022/08/18 02:47:30;;;;;;;;;21.75;21.75;;;;;19.68;78.38;100409.44;5073682;27;45374;-72
2022/08/18 02:49:56;;;;;;;;;21.50;21.25;;;;;19.65;78.19;100415.00;5073647;28;45350;-72
2022/08/18 02:52:21;;;;;;;;;19.50;19.50;;;;;19.60;78.69;100403.00;5073931;27;45358;-71
2022/08/18 02:54:48;;;;;;;;;20.25;20.25;;;;;19.55;78.93;100411.41;5073456;27;45533;-71
2022/08/18 02:57:13;;;;;;;;;23.00;23.00;;;;;19.55;79.20;100409.56;5073850;27;45339;-71
2022/08/18 02:59:40;;;;;;;;;22.50;22.50;;;;;19.54;79.51;100407.03;5071957;28;45315;-71
2022/08/18 03:02:06;;;;;;;;;23.75;23.75;;;;;19.50;79.88;100401.09;5075227;27;45366;-71
2022/08/18 03:04:32;;;;;;;;;23.00;23.00;;;;;19.49;79.45;100406.56;5076832;28;45395;-70
2022/08/18 03:07:01;;;;;;;;;19.00;19.00;;;;;19.50;79.98;100405.59;5077224;27;45385;-71
2022/08/18 03:09:27;;;;;;;;;24.50;23.50;;;;;19.49;79.78;100403.91;5077069;27;45262;-72
2022/08/18 03:11:53;;;;;;;;;23.50;22.75;;;;;19.45;79.72;100395.28;5077282;27;45324;-72
2022/08/18 03:14:19;;;;;;;;;25.00;25.00;;;;;19.47;79.89;100400.50;5076643;27;45260;-71
2022/08/18 03:16:47;;;;;;;;;23.75;23.75;;;;;19.47;79.81;100389.84;5077189;27;45394;-71
2022/08/18 03:19:16;;;;;;;;;24.75;24.75;;;;;19.47;80.09;100393.34;5076895;28;45336;-72
2022/08/18 03:21:44;;;;;;;;;23.00;23.00;;;;;19.45;79.88;100383.78;5077198;27;45177;-70
2022/08/18 03:24:11;;;;;;;;;23.50;23.50;;;;;19.48;79.85;100391.53;5076614;28;46516;-72
2022/08/18 03:26:40;;;;;;;;;24.25;24.25;;;;;19.46;80.06;100391.63;5076572;27;45318;-71
2022/08/18 03:29:05;;;;;;;;;22.00;22.00;;;;;19.47;79.97;100388.00;5076552;27;45375;-71
2022/08/18 03:31:31;;;;;;;;;23.25;23.25;;;;;19.49;79.37;100386.06;5077154;27;45260;-72
2022/08/18 03:33:59;;;;;;;;;24.00;24.00;;;;;19.48;80.02;100386.19;5076682;27;46203;-71
2022/08/18 03:36:27;;;;;;;;;26.25;26.25;;;;;19.50;79.84;100385.09;5076448;27;45589;-70
2022/08/18 03:38:53;;;;;;;;;24.50;24.50;;;;;19.46;79.62;100377.47;5076724;27;45427;-71
2022/08/18 03:41:22;;;;;;;;;25.50;25.50;;;;;19.51;79.71;100392.13;5075742;27;45348;-71
2022/08/18 03:43:49;;;;;;;;;27.75;27.75;;;;;19.51;79.07;100388.63;5076758;27;46672;-71
2022/08/18 03:46:16;;;;;;;;;26.00;26.00;;;;;19.53;79.11;100389.34;5076834;27;45305;-71
2022/08/18 03:48:42;;;;;;;;;25.50;24.50;;;;;19.54;79.12;100388.38;5076333;27;45278;-71
2022/08/18 03:51:13;;;;;;;;;26.75;26.50;;;;;19.54;79.72;100389.19;5075498;27;45427;-73
2022/08/18 03:53:38;;;;;;;;;26.25;25.25;;;;;19.56;79.34;100389.09;5076420;27;45357;-72
2022/08/18 03:56:14;;;;;;;;;26.75;26.75;;;;;19.51;79.07;100380.63;5076150;27;45517;-71
2022/08/18 03:58:44;;;;;;;;;27.50;26.00;;;;;19.52;79.08;100383.13;5076647;27;45504;-71
2022/08/18 04:01:14;;;;;;;;;29.25;28.75;;;;;19.54;79.35;100383.88;5076886;27;45282;-72
2022/08/18 04:03:44;;;;;;;;;25.25;25.25;;;;;19.56;79.48;100389.09;5076097;27;46410;-71
2022/08/18 04:06:23;;;;;;;;;27.25;27.25;;;;;19.53;79.22;100386.66;5076390;28;45348;-71
2022/08/18 04:08:53;;;;;;;;;29.50;29.50;;;;;19.52;79.24;100382.31;5076858;27;45363;-72
2022/08/18 04:11:20;;;;;;;;;26.00;26.00;;;;;19.50;79.03;100385.09;5077739;27;45198;-71
2022/08/18 04:13:46;;;;;;;;;26.50;26.50;;;;;19.47;78.97;100382.66;5075681;27;46794;-71
2022/08/18 04:16:12;;;;;;;;;28.00;28.00;;;;;19.44;78.75;100382.09;5076185;27;45284;-73
2022/08/18 04:18:38;;;;;;;;;29.50;29.00;;;;;19.37;79.36;100374.59;5074969;28;45324;-72
2022/08/18 04:21:06;;;;;;;;;23.00;23.00;;;;;19.35;79.24;100379.19;5076314;27;45438;-71
2022/08/18 04:23:33;;;;;;;;;25.00;25.00;;;;;19.34;79.68;100373.97;5076121;28;45556;-72
2022/08/18 04:26:00;;;;;;;;;28.25;28.00;;;;;19.34;79.35;100379.31;5076277;27;45271;-71
2022/08/18 04:28:27;;;;;;;;;26.25;25.75;;;;;19.31;79.90;100375.06;5076139;27;45200;-73
2022/08/18 04:30:53;;;;;;;;;27.25;25.25;;;;;19.32;79.54;100381.25;5076082;27;45554;-72
2022/08/18 04:33:19;;;;;;;;;29.75;29.00;;;;;19.29;79.85;100392.16;5076177;27;45600;-72
2022/08/18 04:35:45;;;;;;;;;27.25;27.25;;;;;19.30;80.00;100394.72;5074137;27;45440;-71
2022/08/18 04:38:12;;;;;;;;;28.00;28.00;;;;;19.32;80.33;100399.91;5075632;27;45525;-70
2022/08/18 04:40:37;;;;;;;;;26.00;26.00;;;;;19.29;80.12;100398.34;5076192;27;45554;-73
2022/08/18 04:43:03;;;;;;;;;33.75;32.00;;;;;19.29;79.78;100401.03;5074370;27;45681;-72
2022/08/18 04:45:29;;;;;;;;;28.75;28.75;;;;;19.28;80.28;100404.66;5075889;27;45289;-71
2022/08/18 04:47:54;;;;;;;;;33.50;31.75;;;;;19.26;80.36;100404.75;5076246;27;45247;-72
2022/08/18 04:50:20;;;;;;;;;33.75;31.75;;;;;19.23;79.95;100406.84;5076542;27;45523;-71
2022/08/18 04:55:30;;;;;;;;;30.50;29.50;;;;;19.16;80.61;100402.97;5075820;27;45467;-71
2022/08/18 04:57:57;;;;;;;;;37.25;34.25;;;;;19.11;80.82;100406.84;5075544;27;45263;-72
2022/08/18 05:00:22;;;;;;;;;34.00;32.00;;;;;19.11;81.20;100409.53;5075896;27;45581;-71
2022/08/18 05:02:48;;;;;;;;;34.50;31.25;;;;;19.12;81.06;100407.69;5075258;27;45537;-71
2022/08/18 05:05:13;;;;;;;;;36.00;33.00;;;;;19.11;81.05;100411.31;5075271;27;45455;-70
2022/08/18 05:07:44;;;;;;;;;32.25;31.00;;;;;19.11;81.21;100412.19;5075200;27;46093;-72
2022/08/18 05:10:11;;;;;;;;;35.50;32.50;;;;;19.10;81.15;100410.50;5074922;27;45188;-70
2022/08/18 05:12:38;;;;;;;;;38.25;35.00;;;;;19.11;81.18;100412.19;5074564;28;45401;-71
2022/08/18 05:15:04;;;;;;;;;40.00;34.75;;;;;19.13;81.69;100420.03;5074399;27;45411;-70
2022/08/18 05:17:29;;;;;;;;;35.75;32.75;;;;;19.11;81.13;100422.84;5075013;27;45378;-72
2022/08/18 05:19:55;;;;;;;;;36.50;33.50;;;;;19.11;81.11;100427.31;5075251;27;45401;-71
2022/08/18 05:22:20;;;;;;;;;38.00;34.25;;;;;19.18;81.49;100435.69;5075608;27;46518;-72
2022/08/18 05:24:46;;;;;;;;;38.00;34.25;;;;;19.15;81.50;100428.78;5073425;27;45375;-72
2022/08/18 05:27:12;;;;;;;;;37.50;34.00;;;;;19.11;81.66;100429.97;5073491;27;45443;-72
2022/08/18 05:29:37;;;;;;;;;40.50;35.25;;;;;19.10;81.71;100431.81;5075275;27;45371;-73
2022/08/18 05:32:06;;;;;;;;;40.50;35.75;;;;;19.08;82.13;100432.88;5074754;27;45444;-71
2022/08/18 05:34:33;;;;;;;;;41.75;36.50;;;;;19.08;81.85;100441.72;5074726;27;45247;-72
2022/08/18 05:37:20;;;;;;;;;44.25;38.25;;;;;19.09;82.36;100430.13;5074796;27;45343;-72
2022/08/18 05:40:00;;;;;;;;;43.25;37.00;;;;;19.15;82.04;100443.94;5074798;27;45374;-72
2022/08/18 05:42:34;;;;;;;;;45.75;39.50;;;;;19.16;81.52;100445.63;5075054;27;46169;-72
2022/08/18 05:45:02;;;;;;;;;44.50;38.25;;;;;19.17;81.66;100450.81;5074106;28;45370;-72
2022/08/18 05:47:30;;;;;;;;;42.50;36.25;;;;;19.20;82.07;100445.25;5074724;27;45243;-72
2022/08/18 05:50:03;;;;;;;;;44.50;38.50;;;;;19.23;82.18;100458.34;5075038;27;45476;-70
2022/08/18 05:53:01;;;;;;;;;47.75;41.00;;;;;19.29;81.73;100456.16;5074604;27;47018;-70
2022/08/18 05:58:24;;;;;;;;;38.50;34.75;;;;;19.32;81.38;100461.25;5074477;27;45342;-70
2022/08/18 06:00:53;;;;;;;;;42.25;35.00;;;;;19.33;81.27;100462.94;5074784;28;45175;-75
2022/08/18 06:03:25;;;;;;;;;42.75;37.25;;;;;19.35;81.30;100461.00;5074400;27;46776;-71
2022/08/18 06:05:53;;;;;;;;;44.50;38.25;;;;;19.37;81.20;100467.06;5074287;27;45238;-70
2022/08/18 06:08:22;;;;;;;;;43.75;37.75;;;;;19.36;81.03;100468.03;5074335;27;45403;-72
2022/08/18 06:10:49;;;;;;;;;44.50;38.50;;;;;19.36;81.20;100476.91;5074655;28;45550;-71
2022/08/18 06:13:19;;;;;;;;;44.00;38.00;;;;;19.37;81.75;100467.94;5074011;27;45430;-72
2022/08/18 06:16:08;;;;;;;;;42.00;36.75;;;;;19.36;81.70;100455.56;5074137;27;45359;-73
2022/08/18 06:18:47;;;;;;;;;47.00;39.75;;;;;19.38;81.30;100460.75;5074551;27;45299;-71
2022/08/18 06:21:27;;;;;;;;;39.00;34.75;;;;;19.41;81.58;100452.50;5075224;27;45257;-72
2022/08/18 06:24:07;;;;;;;;;44.25;38.00;;;;;19.42;81.44;100455.06;5074303;28;45485;-71
2022/08/18 06:27:03;;;;;;;;;42.50;37.25;;;;;19.47;80.87;100464.53;5073967;27;45442;-72
2022/08/18 06:29:41;;;;;;;;;46.00;39.50;;;;;19.48;80.71;100469.72;5074252;27;45444;-72
2022/08/18 06:32:18;;;;;;;;;42.00;36.75;;;;;19.54;80.59;100474.56;5074233;27;45487;-72
2022/08/18 06:35:07;;;;;;;;;45.25;38.25;;;;;19.57;80.18;100484.16;5073888;27;45977;-71
2022/08/18 06:40:48;;;;;;;;;41.00;35.25;;;;;19.63;80.21;100475.66;5079016;28;45379;-71
2022/08/18 06:43:15;;;;;;;;;42.75;37.00;;;;;19.66;80.40;100479.91;5080933;27;45453;-72
2022/08/18 06:45:44;;;;;;;;;45.75;39.00;;;;;19.71;80.08;100483.91;5080546;27;46381;-71
2022/08/18 06:48:33;;;;;;;;;36.00;33.00;;;;;19.81;79.85;100489.34;5079187;27;45156;-71
2022/08/18 06:51:01;;;;;;;;;45.25;39.00;;;;;19.89;80.17;100472.69;5080868;27;45382;-71
2022/08/18 06:53:52;;;;;;;;;45.50;39.25;;;;;19.99;79.40;100492.34;5081089;27;45391;-71
2022/08/18 06:56:45;;;;;;;;;42.75;37.00;;;;;20.04;78.79;100488.47;5080470;27;47292;-72
2022/08/18 06:59:19;;;;;;;;;43.50;37.25;;;;;20.08;79.03;100495.25;5080828;27;45301;-73
2022/08/18 07:01:49;;;;;;;;;42.25;36.75;;;;;20.12;78.43;100494.03;5080950;27;45398;-71
2022/08/18 07:04:36;;;;;;;;;41.00;36.00;;;;;20.17;78.46;100494.53;5081182;27;45270;-72
2022/08/18 07:07:13;;;;;;;;;45.25;39.25;;;;;20.22;78.62;100497.66;5080594;27;46351;-72
2022/08/18 07:09:39;;;;;;;;;45.00;39.00;;;;;20.28;78.10;100502.50;5080166;27;45355;-72
2022/08/18 07:12:07;;;;;;;;;41.75;35.75;;;;;20.34;78.14;100500.28;5080353;27;45161;-72
2022/08/18 07:14:45;;;;;;;;;45.00;38.50;;;;;20.43;77.70;100499.50;5080019;27;45389;-71
2022/08/18 07:17:21;;;;;;;;;44.25;38.25;;;;;20.52;77.56;100492.53;5078395;27;46334;-72
2022/08/18 07:19:56;;;;;;;;;46.50;40.25;;;;;20.62;77.47;100496.13;5079752;27;45335;-72
2022/08/18 07:22:22;;;;;;;;;41.25;36.25;;;;;20.72;77.68;100494.41;5080267;27;45329;-72
2022/08/18 07:24:53;;;;;;;;;46.25;40.00;;;;;20.82;76.81;100494.47;5080432;27;45624;-73
2022/08/18 07:27:22;;;;;;;;;44.75;37.75;;;;;20.90;76.28;100492.97;5079699;27;46520;-70
2022/08/18 07:30:04;;;;;;;;;46.25;39.50;;;;;20.96;76.07;100490.63;5079962;27;45398;-73
2022/08/18 07:32:39;;;;;;;;;48.75;41.75;;;;;20.98;75.80;100474.44;5080513;27;45509;-72
2022/08/18 07:35:07;;;;;;;;;48.00;41.00;;;;;21.11;75.59;100487.63;5080239;27;45394;-72
2022/08/18 07:37:35;;;;;;;;;48.00;41.00;;;;;21.23;75.07;100491.06;5078438;27;47845;-72
2022/08/18 07:40:23;;;;;;;;;48.25;40.25;;;;;21.33;75.05;100489.28;5078512;27;45622;-71
2022/08/18 07:42:59;;;;;;;;;45.00;38.50;;;;;21.42;74.53;100493.81;5080194;27;45484;-70
2022/08/18 07:45:28;;;;;;;;;44.75;38.25;;;;;21.54;74.21;100504.44;5078563;28;45484;-70
2022/08/18 07:48:02;;;;;;;;;46.25;39.50;;;;;21.63;73.32;100500.06;5077864;27;45261;-71
2022/08/18 07:50:37;;;;;;;;;48.25;41.25;;;;;21.75;73.46;100507.06;5076759;27;45399;-71
2022/08/18 07:53:18;;;;;;;;;47.00;39.00;;;;;21.84;72.88;100502.72;5076678;27;45351;-69
2022/08/18 07:55:51;;;;;;;;;44.25;38.00;;;;;21.95;72.50;100510.63;5076894;27;45341;-72
2022/08/18 07:58:25;;;;;;;;;48.50;41.50;;;;;22.08;72.00;100509.53;5076293;27;46654;-71
2022/08/18 08:01:11;;;;;;;;;44.75;38.00;;;;;22.20;71.67;100505.72;5076316;27;45255;-70
2022/08/18 08:03:37;;;;;;;;;47.75;40.75;;;;;22.30;71.43;100501.25;5076681;27;45224;-72
2022/08/18 08:06:25;;;;;;;;;40.75;35.75;;;;;22.45;71.20;100508.91;5076798;27;45468;-72
2022/08/18 08:09:16;;;;;;;;;45.25;39.00;;;;;22.60;70.64;100503.94;5076120;28;45355;-70
2022/08/18 08:11:55;;;;;;;;;47.25;40.50;;;;;22.74;69.86;100497.31;5074826;28;45320;-72
2022/08/18 08:14:54;;;;;;;;;47.00;40.00;;;;;22.88;69.68;100496.84;5076455;28;45473;-72
2022/08/18 08:17:39;;;;;;;;;47.50;40.50;;;;;23.02;69.08;100494.69;5076789;27;45242;-73
2022/08/18 08:20:17;;;;;;;;;50.00;41.25;;;;;23.14;69.13;100484.66;5076245;27;46590;-72
2022/08/18 08:23:03;;;;;;;;;48.00;40.25;;;;;23.23;67.91;100491.81;5076288;27;45200;-71
2022/08/18 08:25:53;;;;;;;;;44.00;38.00;;;;;23.26;67.64;100488.00;5076479;27;45468;-71
2022/08/18 08:28:46;;;;;;;;;49.25;42.00;;;;;23.28;67.86;100486.91;5076100;28;45321;-72
2022/08/18 08:31:26;;;;;;;;;48.50;41.50;;;;;23.30;67.25;100478.69;5075535;27;45409;-72
2022/08/18 08:34:02;;;;;;;;;47.75;40.25;;;;;23.33;66.97;100471.19;5075836;27;45362;-71
2022/08/18 08:36:36;;;;;;;;;39.75;35.50;;;;;23.38;66.13;100468.06;5074196;27;45462;-71
2022/08/18 08:39:13;;;;;;;;;38.50;34.25;;;;;23.39;64.68;100469.75;5076335;27;45358;-71
2022/08/18 08:42:08;;;;;;;;;44.25;38.25;;;;;23.37;64.67;100469.06;5075842;27;46262;-71
2022/08/18 08:44:36;;;;;;;;;44.00;37.75;;;;;23.38;65.29;100470.75;5074956;27;45401;-71
2022/08/18 08:47:14;;;;;;;;;41.75;36.50;;;;;23.37;65.41;100469.06;5076011;28;45349;-71
2022/08/18 08:49:48;;;;;;;;;34.00;31.50;;;;;23.42;64.30;100473.97;5075815;28;45394;-71
2022/08/18 08:52:21;;;;;;;;;39.50;35.00;;;;;23.41;64.00;100491.06;5075064;27;45476;-72
2022/08/18 08:54:55;;;;;;;;;45.25;39.00;;;;;23.44;63.97;100493.47;5075297;27;45411;-72
2022/08/18 08:57:28;;;;;;;;;35.25;32.50;;;;;23.44;63.71;100490.78;5075440;27;45339;-72
2022/08/18 08:59:56;;;;;;;;;41.00;35.75;;;;;23.49;63.56;100497.41;5075219;27;45267;-72
2022/08/18 09:02:36;;;;;;;;;38.75;34.50;;;;;23.54;63.58;100496.94;5075309;27;45380;-73
2022/08/18 09:05:07;;;;;;;;;38.00;34.00;;;;;23.64;63.17;100499.59;5075592;27;45171;-71
2022/08/18 09:07:54;;;;;;;;;41.00;36.00;;;;;23.77;63.42;100500.09;5075271;27;45314;-72
2022/08/18 09:10:38;;;;;;;;;41.25;35.25;;;;;23.89;63.33;100505.25;5075453;27;45252;-70
2022/08/18 09:13:45;;;;;;;;;42.50;37.00;;;;;24.00;62.37;100505.06;5075056;27;46422;-70
2022/08/18 09:16:38;;;;;;;;;43.25;37.50;;;;;24.09;62.03;100510.53;5064449;27;45475;-71
2022/08/18 09:19:18;;;;;;;;;40.50;36.00;;;;;24.14;61.11;100513.59;5075667;27;45377;-71
2022/08/18 09:22:14;;;;;;;;;33.25;31.25;;;;;24.19;61.80;100519.34;5075481;28;45365;-71
2022/08/18 09:24:46;;;;;;;;;34.00;31.75;;;;;24.30;60.80;100513.75;5072884;27;45798;-72
2022/08/18 09:27:40;;;;;;;;;32.75;31.00;;;;;24.40;60.45;100513.69;5074816;27;45253;-72
2022/08/18 09:30:07;;;;;;;;;34.50;32.25;;;;;24.52;60.14;100511.63;5075190;27;45215;-72
2022/08/18 09:32:47;;;;;;;;;37.75;34.00;;;;;24.67;60.05;100521.81;5075192;28;45202;-72
2022/08/18 09:35:35;;;;;;;;;30.50;29.50;;;;;24.81;59.95;100523.97;5074497;27;46523;-71
2022/08/18 09:43:54;;;;;;;;;31.75;30.00;;;;;25.27;58.37;100512.16;5075082;28;45197;-74
2022/08/18 09:46:38;;;;;;;;;33.75;31.25;;;;;25.37;58.12;100502.97;5074500;27;46310;-72
2022/08/18 09:49:22;;;;;;;;;36.75;33.25;;;;;25.40;57.23;100507.16;5074854;27;45346;-73
2022/08/18 09:51:49;;;;;;;;;35.50;32.25;;;;;25.49;57.58;100508.94;5074672;27;45325;-71
2022/08/18 09:54:17;;;;;;;;;32.75;31.00;;;;;25.57;57.10;100513.50;5074708;28;45372;-72
2022/08/18 09:56:49;;;;;;;;;35.00;32.25;;;;;25.65;56.56;100512.72;5074362;27;45437;-72
2022/08/18 09:59:32;;;;;;;;;29.50;28.75;;;;;25.73;56.78;100514.59;5074228;28;45395;-71
2022/08/18 10:02:10;;;;;;;;;28.00;28.00;;;;;25.84;56.34;100511.59;5074440;27;45224;-70
2022/08/18 10:04:50;;;;;;;;;27.75;27.75;;;;;25.93;56.06;100507.91;5074796;27;45285;-72
2022/08/18 10:07:32;;;;;;;;;25.00;25.00;;;;;26.04;55.59;100506.75;5074214;27;45374;-71
2022/08/18 10:10:06;;;;;;;;;30.00;29.00;;;;;26.15;55.27;100502.09;5074489;27;45906;-72
2022/08/18 10:12:59;;;;;;;;;30.50;29.25;;;;;26.20;54.95;100497.03;5073285;28;45309;-71
2022/08/18 10:15:35;;;;;;;;;29.75;27.50;;;;;26.23;54.74;100488.63;5074602;28;45707;-72
2022/08/18 10:18:11;;;;;;;;;24.50;24.50;;;;;26.31;54.37;100483.25;5074035;27;45583;-72
2022/08/18 10:21:12;;;;;;;;;26.50;26.50;;;;;26.39;54.12;100480.53;5074262;27;45376;-71
2022/08/18 10:23:55;;;;;;;;;25.50;25.50;;;;;26.49;53.31;100474.13;5074170;27;45308;-72
2022/08/18 10:26:29;;;;;;;;;26.00;26.00;;;;;26.50;53.03;100473.13;5072463;27;45392;-71
2022/08/18 10:29:07;;;;;;;;;26.75;26.75;;;;;26.50;54.02;100468.59;5073645;28;45629;-73
2022/08/18 10:32:04;;;;;;;;;26.00;26.00;;;;;26.56;52.39;100467.09;5073983;27;45346;-72
2022/08/18 10:34:44;;;;;;;;;28.75;28.50;;;;;26.52;52.01;100468.44;5074301;27;45501;-73
2022/08/18 10:37:29;;;;;;;;;29.50;28.75;;;;;26.45;52.67;100462.00;5074132;27;45256;-72
2022/08/18 10:40:14;;;;;;;;;27.50;27.50;;;;;26.42;53.23;100462.34;5073922;27;46189;-71
2022/08/18 10:42:52;;;;;;;;;27.00;27.00;;;;;26.50;53.65;100465.03;5074044;27;45356;-70
2022/08/18 10:45:34;;;;;;;;;31.00;29.00;;;;;26.63;53.59;100464.53;5074051;27;45260;-71
2022/08/18 10:48:20;;;;;;;;;25.50;25.25;;;;;26.80;52.62;100468.88;5073608;27;45418;-71
2022/08/18 10:50:57;;;;;;;;;26.00;26.00;;;;;26.92;52.49;100461.31;5073367;27;46722;-72
2022/08/18 10:53:44;;;;;;;;;25.50;25.50;;;;;27.15;51.63;100460.56;5073765;27;45446;-71
2022/08/18 10:56:24;;;;;;;;;20.75;20.75;;;;;27.30;51.21;100454.44;5073693;27;45281;-70
2022/08/18 10:59:07;;;;;;;;;22.00;22.00;;;;;27.43;50.39;100457.41;5074110;27;45353;-72
2022/08/18 11:02:16;;;;;;;;;22.25;22.25;;;;;27.53;48.52;100449.97;5073437;27;46374;-71
2022/08/18 11:04:45;;;;;;;;;20.75;20.75;;;;;27.52;49.19;100447.47;5073591;27;45360;-71
2022/08/18 11:07:18;;;;;;;;;19.00;19.00;;;;;27.54;49.26;100458.94;5072119;27;45568;-71
2022/08/18 11:09:45;;;;;;;;;19.75;19.75;;;;;27.60;49.27;100449.28;5073507;27;45279;-72
2022/08/18 11:12:13;;;;;;;;;23.25;23.25;;;;;27.81;47.97;100454.06;5073237;27;45561;-69
2022/08/18 11:14:59;;;;;;;;;19.25;19.25;;;;;27.92;48.94;100448.22;5073603;28;45475;-72
2022/08/18 11:17:40;;;;;;;;;21.50;21.50;;;;;28.07;47.94;100456.41;5073517;27;45317;-71
2022/08/18 11:20:08;;;;;;;;;19.25;19.25;;;;;28.25;48.38;100447.19;5073423;27;45351;-69
2022/08/18 11:22:35;;;;;;;;;16.00;16.00;;;;;28.42;46.05;100451.44;5073895;27;46247;-72
2022/08/18 11:25:02;;;;;;;;;17.75;17.75;;;;;28.56;46.86;100449.78;5076523;27;45237;-73
2022/08/18 11:27:36;;;;;;;;;21.00;21.00;;;;;28.72;45.77;100458.78;5076757;27;45244;-72
2022/08/18 11:30:04;;;;;;;;;22.75;22.75;;;;;28.85;45.25;100460.88;5076704;27;45446;-71
2022/08/18 11:32:34;;;;;;;;;17.00;16.00;;;;;28.99;45.36;100459.19;5076778;27;47917;-70
2022/08/18 11:34:59;;;;;;;;;16.00;16.00;;;;;29.10;45.59;100463.31;5076617;28;45181;-72
2022/08/18 11:37:52;;;;;;;;;16.50;16.50;;;;;29.26;45.24;100446.88;5076716;27;45231;-71
2022/08/18 11:40:17;;;;;;;;;17.75;17.75;;;;;29.34;42.04;100456.78;5074228;27;45437;-72
2022/08/18 11:42:53;;;;;;;;;15.75;15.75;;;;;29.17;42.88;100456.13;5076690;27;45401;-71
2022/08/18 11:45:22;;;;;;;;;15.25;15.25;;;;;29.04;42.94;100450.53;5076652;28;45252;-72
2022/08/18 11:48:00;;;;;;;;;17.50;17.50;;;;;29.05;43.65;100457.63;5076472;27;45288;-72
2022/08/18 11:50:28;;;;;;;;;13.25;13.25;;;;;29.16;43.50;100467.97;5076345;27;45376;-71
2022/08/18 11:52:55;;;;;;;;;14.50;14.50;;;;;29.33;42.32;100460.50;5076001;28;46048;-72
2022/08/18 11:55:30;;;;;;;;;11.75;11.75;;;;;29.48;41.73;100468.63;5076287;27;45215;-71